createdAt,value
2022-09-12T00:01:20.324Z,14.23
2022-09-12T00:03:48.274Z,14.25
2022-09-12T00:06:23.208Z,14.29
2022-09-12T00:08:51.847Z,14.20
2022-09-12T00:11:19.153Z,13.83
2022-09-12T00:13:46.206Z,13.88
2022-09-12T00:16:20.041Z,13.75
2022-09-12T00:18:47.309Z,13.77
2022-09-12T00:21:16.004Z,13.72
2022-09-12T00:23:42.954Z,13.77
2022-09-12T00:26:10.003Z,13.82
2022-09-12T00:28:39.965Z,14.12
2022-09-12T00:31:14.732Z,14.16
2022-09-12T00:33:45.234Z,13.86
2022-09-12T00:36:19.426Z,13.57
2022-09-12T00:38:47.667Z,13.41
2022-09-12T00:41:23.673Z,13.07
2022-09-12T00:43:58.580Z,13.10
2022-09-12T00:46:37.351Z,12.98
2022-09-12T00:49:17.144Z,13.13
2022-09-12T00:51:53.210Z,13.12
2022-09-12T00:54:26.708Z,13.08
2022-09-12T00:56:58.862Z,13.13
2022-09-12T00:59:50.753Z,13.16
2022-09-12T01:02:18.158Z,13.19
2022-09-12T01:04:45.432Z,13.24
2022-09-12T01:07:13.378Z,13.06
2022-09-12T01:09:42.266Z,12.91
2022-09-12T01:12:09.562Z,12.98
2022-09-12T01:14:37.741Z,13.00
2022-09-12T01:17:04.871Z,13.11
2022-09-12T01:19:35.211Z,13.07
2022-09-12T01:22:47.033Z,13.02
2022-09-12T01:25:35.018Z,12.99
2022-09-12T01:28:29.130Z,12.99
2022-09-12T01:31:24.683Z,13.04
2022-09-12T01:33:56.147Z,13.01
2022-09-12T01:36:33.566Z,13.11
2022-09-12T01:39:30.157Z,13.04
2022-09-12T01:42:27.187Z,12.82
2022-09-12T01:45:16.453Z,12.81
2022-09-12T01:48:03.192Z,12.61
2022-09-12T01:50:40.360Z,12.38
2022-09-12T01:53:19.424Z,12.32
2022-09-12T01:55:54.722Z,12.46
2022-09-12T01:58:30.441Z,12.42
2022-09-12T02:01:24.820Z,12.49
2022-09-12T02:03:52.571Z,12.46
2022-09-12T02:06:33.050Z,12.57
2022-09-12T02:09:12.712Z,12.51
2022-09-12T02:11:44.676Z,12.26
2022-09-12T02:14:25.960Z,12.26
2022-09-12T02:16:59.234Z,12.41
2022-09-12T02:19:34.671Z,12.28
2022-09-12T02:22:04.946Z,12.22
2022-09-12T02:24:39.542Z,12.46
2022-09-12T02:27:18.662Z,12.35
2022-09-12T02:29:46.143Z,12.15
2022-09-12T02:32:38.202Z,12.04
2022-09-12T02:35:32.931Z,12.37
2022-09-12T02:38:13.325Z,12.48
2022-09-12T02:40:41.062Z,12.36
2022-09-12T02:43:08.071Z,12.34
2022-09-12T02:45:36.539Z,12.36
2022-09-12T02:48:13.312Z,12.30
2022-09-12T02:50:42.907Z,12.10
2022-09-12T02:53:11.288Z,12.09
2022-09-12T02:55:40.659Z,11.95
2022-09-12T02:58:31.660Z,11.87
2022-09-12T03:01:16.659Z,12.13
2022-09-12T03:04:25.063Z,12.08
2022-09-12T03:07:16.507Z,12.18
2022-09-12T03:10:18.662Z,12.15
2022-09-12T03:13:09.063Z,12.11
2022-09-12T03:16:00.743Z,12.27
2022-09-12T03:19:06.402Z,12.06
2022-09-12T03:22:09.662Z,12.31
2022-09-12T03:24:43.955Z,12.61
2022-09-12T03:27:20.000Z,12.47
2022-09-12T03:29:48.992Z,12.54
2022-09-12T03:32:15.930Z,12.59
2022-09-12T03:34:42.784Z,12.60
2022-09-12T03:37:09.717Z,12.58
2022-09-12T03:39:36.847Z,12.58
2022-09-12T03:42:03.955Z,12.71
2022-09-12T03:44:30.913Z,12.56
2022-09-12T03:46:57.946Z,12.43
2022-09-12T03:49:24.863Z,12.62
2022-09-12T03:51:51.810Z,12.69
2022-09-12T03:54:18.784Z,12.51
2022-09-12T03:56:45.817Z,12.55
2022-09-12T03:59:12.860Z,12.68
2022-09-12T04:01:40.803Z,12.68
2022-09-12T04:04:08.699Z,12.96
2022-09-12T04:06:35.589Z,12.68
2022-09-12T04:09:02.473Z,12.69
2022-09-12T04:11:29.357Z,12.78
2022-09-12T04:13:56.226Z,12.74
2022-09-12T04:16:23.286Z,12.92
2022-09-12T04:18:50.415Z,12.82
2022-09-12T04:21:21.754Z,13.00
2022-09-12T04:23:48.691Z,12.80
2022-09-12T04:26:17.820Z,12.63
2022-09-12T04:28:46.142Z,12.71
2022-09-12T04:31:18.063Z,12.82
2022-09-12T04:33:45.777Z,12.84
2022-09-12T04:36:16.944Z,12.93
2022-09-12T04:38:46.699Z,13.01
2022-09-12T04:41:35.158Z,12.95
2022-09-12T04:44:08.107Z,12.90
2022-09-12T04:46:41.463Z,13.00
2022-09-12T04:49:08.868Z,12.81
2022-09-12T04:51:38.292Z,12.95
2022-09-12T04:54:16.934Z,12.58
2022-09-12T04:56:48.915Z,12.55
2022-09-12T04:59:18.718Z,12.46
2022-09-12T05:01:46.326Z,12.51
2022-09-12T05:04:13.879Z,12.46
2022-09-12T05:06:41.845Z,12.28
2022-09-12T05:09:12.015Z,12.31
2022-09-12T05:14:31.446Z,12.60
2022-09-12T05:17:00.797Z,12.72
2022-09-12T05:19:30.153Z,12.55
2022-09-12T05:21:57.640Z,12.46
2022-09-12T05:24:24.780Z,12.35
2022-09-12T05:26:52.156Z,12.41
2022-09-12T05:29:19.898Z,12.49
2022-09-12T05:31:52.261Z,12.48
2022-09-12T05:34:20.326Z,12.65
2022-09-12T05:36:47.252Z,12.82
2022-09-12T05:39:14.259Z,13.09
2022-09-12T05:41:41.207Z,13.21
2022-09-12T05:44:14.086Z,13.28
2022-09-12T05:46:45.495Z,13.22
2022-09-12T05:49:14.557Z,13.43
2022-09-12T05:51:45.186Z,13.69
2022-09-12T05:54:16.088Z,13.77
2022-09-12T05:56:44.287Z,13.96
2022-09-12T05:59:21.319Z,14.01
2022-09-12T06:01:49.894Z,13.84
2022-09-12T06:04:17.566Z,14.03
2022-09-12T06:06:46.341Z,14.07
2022-09-12T06:09:17.635Z,14.08
2022-09-12T06:11:45.903Z,14.05
2022-09-12T06:14:16.133Z,14.30
2022-09-12T06:16:43.258Z,14.35
2022-09-12T06:19:18.033Z,14.36
2022-09-12T06:21:46.119Z,14.31
2022-09-12T06:24:13.156Z,14.39
2022-09-12T06:26:40.200Z,14.35
2022-09-12T06:29:07.614Z,14.58
2022-09-12T06:31:38.786Z,14.54
2022-09-12T06:34:08.443Z,14.68
2022-09-12T06:36:39.797Z,14.88
2022-09-12T06:39:12.006Z,14.96
2022-09-12T06:41:43.545Z,15.14
2022-09-12T06:44:22.461Z,15.12
2022-09-12T06:46:50.007Z,15.26
2022-09-12T06:49:17.834Z,15.37
2022-09-12T06:51:45.056Z,15.40
2022-09-12T06:54:17.154Z,15.26
2022-09-12T06:56:44.658Z,15.36
2022-09-12T06:59:11.934Z,15.60
2022-09-12T07:01:40.218Z,15.60
2022-09-12T07:04:07.503Z,15.67
2022-09-12T07:06:41.401Z,15.71
2022-09-12T07:09:12.775Z,15.91
2022-09-12T07:11:41.923Z,15.86
2022-09-12T07:14:13.014Z,16.00
2022-09-12T07:16:40.361Z,16.22
2022-09-12T07:19:09.295Z,16.23
2022-09-12T07:21:39.814Z,16.25
2022-09-12T07:24:09.689Z,16.32
2022-09-12T07:26:37.399Z,16.32
2022-09-12T07:29:25.491Z,16.69
2022-09-12T07:31:52.244Z,16.66
2022-09-12T07:34:19.374Z,16.59
2022-09-12T07:36:46.453Z,16.47
2022-09-12T07:39:13.467Z,16.86
2022-09-12T07:41:40.515Z,16.58
2022-09-12T07:44:07.597Z,17.03
2022-09-12T07:46:35.385Z,16.83
2022-09-12T07:49:03.038Z,17.16
2022-09-12T07:51:30.854Z,17.16
2022-09-12T07:53:58.757Z,17.33
2022-09-12T07:56:31.216Z,17.04
2022-09-12T07:58:59.786Z,17.19
2022-09-12T08:01:27.364Z,17.39
2022-09-12T08:03:58.230Z,17.77
2022-09-12T08:06:27.976Z,17.77
2022-09-12T08:08:57.544Z,17.86
2022-09-12T08:11:29.594Z,17.98
2022-09-12T08:13:58.082Z,18.00
2022-09-12T08:16:28.467Z,18.49
2022-09-12T08:18:55.624Z,18.65
2022-09-12T08:21:43.846Z,18.44
2022-09-12T08:24:12.600Z,18.20
2022-09-12T08:26:39.576Z,18.53
2022-09-12T08:29:06.444Z,18.39
2022-09-12T08:31:36.639Z,18.56
2022-09-12T08:34:05.704Z,18.57
2022-09-12T08:36:33.715Z,18.33
2022-09-12T08:39:05.128Z,19.09
2022-09-12T08:41:51.387Z,18.82
2022-09-12T08:45:15.594Z,18.97
2022-09-12T08:47:45.287Z,19.43
2022-09-12T08:50:21.183Z,19.73
2022-09-12T08:53:16.819Z,19.44
2022-09-12T08:55:51.313Z,19.48
2022-09-12T08:58:22.609Z,19.90
2022-09-12T09:01:05.216Z,20.50
2022-09-12T09:04:01.807Z,20.77
2022-09-12T09:07:13.348Z,21.20
2022-09-12T09:09:53.139Z,20.60
2022-09-12T09:12:59.317Z,20.97
2022-09-12T09:15:45.216Z,20.92
2022-09-12T09:18:31.911Z,20.34
2022-09-12T09:21:04.776Z,20.65
2022-09-12T09:23:42.930Z,20.09
2022-09-12T09:26:18.328Z,20.87
2022-09-12T09:28:45.098Z,21.61
2022-09-12T09:31:21.505Z,20.93
2022-09-12T09:33:52.140Z,21.43
2022-09-12T09:37:01.359Z,21.34
2022-09-12T09:39:41.134Z,21.92
2022-09-12T09:42:32.193Z,22.32
2022-09-12T09:45:03.839Z,21.87
2022-09-12T09:47:46.844Z,21.95
2022-09-12T09:50:19.587Z,21.62
2022-09-12T09:52:48.104Z,22.32
2022-09-12T09:55:41.724Z,22.27
2022-09-12T09:58:15.303Z,22.65
2022-09-12T10:00:42.484Z,22.69
2022-09-12T10:03:13.421Z,23.01
2022-09-12T10:05:55.585Z,23.02
2022-09-12T10:08:28.981Z,22.46
2022-09-12T10:11:17.599Z,22.15
2022-09-12T10:13:57.966Z,22.48
2022-09-12T10:16:30.704Z,22.37
2022-09-12T10:19:03.702Z,22.75
2022-09-12T10:21:47.870Z,22.59
2022-09-12T10:24:36.601Z,22.99
2022-09-12T10:27:12.322Z,23.02
2022-09-12T10:29:52.665Z,23.12
2022-09-12T10:32:31.020Z,22.94
2022-09-12T10:35:08.972Z,23.18
2022-09-12T10:37:39.798Z,23.91
2022-09-12T10:40:22.275Z,23.07
2022-09-12T10:42:54.144Z,23.69
2022-09-12T10:45:37.717Z,23.74
2022-09-12T10:48:31.747Z,23.44
2022-09-12T10:51:01.845Z,23.80
2022-09-12T10:53:42.194Z,24.39
2022-09-12T10:56:28.427Z,23.71
2022-09-12T10:59:29.258Z,24.03
2022-09-12T11:02:28.978Z,24.34
2022-09-12T11:05:19.479Z,24.94
2022-09-12T11:08:03.934Z,24.16
2022-09-12T11:11:00.357Z,24.88
2022-09-12T11:14:33.296Z,24.44
2022-09-12T11:17:22.495Z,24.35
2022-09-12T11:20:45.942Z,23.89
2022-09-12T11:23:39.921Z,24.24
2022-09-12T11:26:37.706Z,24.51
2022-09-12T11:29:46.901Z,24.02
2022-09-12T11:32:43.624Z,25.04
2022-09-12T11:35:30.667Z,24.75
2022-09-12T11:38:03.511Z,24.55
2022-09-12T11:40:55.955Z,24.25
2022-09-12T11:43:54.922Z,24.63
2022-09-12T11:46:31.943Z,24.53
2022-09-12T11:49:15.596Z,24.44
2022-09-12T11:52:11.275Z,24.48
2022-09-12T11:54:42.023Z,24.95
2022-09-12T11:57:41.757Z,25.46
2022-09-12T12:00:18.818Z,24.83
2022-09-12T12:03:14.207Z,24.87
2022-09-12T12:05:54.383Z,24.60
2022-09-12T12:08:23.567Z,24.59
2022-09-12T12:10:58.214Z,24.96
2022-09-12T12:13:35.187Z,25.05
2022-09-12T12:16:27.117Z,25.21
2022-09-12T12:19:00.482Z,25.68
2022-09-12T12:21:44.025Z,25.91
2022-09-12T12:24:20.614Z,25.04
2022-09-12T12:26:52.398Z,25.44
2022-09-12T12:29:22.119Z,25.54
2022-09-12T12:32:03.827Z,25.04
2022-09-12T12:34:36.034Z,25.03
2022-09-12T12:37:29.636Z,25.23
2022-09-12T12:40:09.021Z,24.91
2022-09-12T12:42:36.050Z,25.10
2022-09-12T12:45:29.260Z,25.81
2022-09-12T12:48:11.071Z,26.16
2022-09-12T12:50:38.105Z,26.33
2022-09-12T12:53:20.962Z,26.37
2022-09-12T12:55:51.879Z,25.80
2022-09-12T12:58:37.194Z,25.38
2022-09-12T13:01:20.389Z,25.36
2022-09-12T13:04:04.637Z,26.04
2022-09-12T13:06:42.153Z,26.43
2022-09-12T13:09:34.557Z,26.70
2022-09-12T13:12:08.156Z,26.45
2022-09-12T13:14:47.550Z,26.46
2022-09-12T13:17:29.323Z,26.43
2022-09-12T13:20:26.633Z,26.04
2022-09-12T13:22:55.124Z,26.33
2022-09-12T13:25:35.264Z,26.53
2022-09-12T13:28:14.586Z,26.57
2022-09-12T13:31:02.230Z,27.07
2022-09-12T13:33:42.754Z,27.01
2022-09-12T13:36:33.753Z,26.93
2022-09-12T13:39:27.518Z,26.56
2022-09-12T13:42:31.536Z,26.42
2022-09-12T13:45:21.926Z,25.71
2022-09-12T13:48:03.375Z,26.18
2022-09-12T13:50:53.532Z,26.56
2022-09-12T13:53:25.972Z,26.58
2022-09-12T13:55:58.056Z,26.21
2022-09-12T13:58:27.418Z,26.04
2022-09-12T14:01:01.367Z,25.89
2022-09-12T14:03:53.094Z,26.07
2022-09-12T14:06:26.291Z,26.15
2022-09-12T14:08:56.842Z,26.55
2022-09-12T14:11:30.060Z,26.64
2022-09-12T14:13:58.077Z,26.19
2022-09-12T14:16:28.985Z,26.20
2022-09-12T14:18:57.069Z,26.06
2022-09-12T14:21:35.045Z,25.83
2022-09-12T14:24:05.600Z,26.03
2022-09-12T14:26:40.458Z,25.46
2022-09-12T14:29:08.610Z,25.80
2022-09-12T14:31:38.414Z,26.20
2022-09-12T14:34:15.369Z,26.00
2022-09-12T14:36:48.983Z,25.99
2022-09-12T14:39:51.630Z,25.96
2022-09-12T14:42:21.766Z,26.21
2022-09-12T14:45:03.916Z,26.41
2022-09-12T14:47:40.471Z,26.32
2022-09-12T14:50:20.686Z,26.04
2022-09-12T14:53:07.022Z,26.18
2022-09-12T14:55:43.095Z,26.27
2022-09-12T14:58:30.547Z,26.00
2022-09-12T15:01:03.797Z,25.76
2022-09-12T15:03:35.625Z,26.00
2022-09-12T15:06:07.939Z,26.26
2022-09-12T15:08:35.060Z,26.52
2022-09-12T15:11:02.571Z,26.55
2022-09-12T15:13:39.732Z,26.58
2022-09-12T15:16:12.107Z,26.48
2022-09-12T15:18:39.495Z,26.13
2022-09-12T15:21:10.731Z,26.24
2022-09-12T15:23:41.826Z,26.19
2022-09-12T15:26:13.715Z,26.47
2022-09-12T15:28:41.190Z,26.34
2022-09-12T15:31:31.153Z,26.26
2022-09-12T15:34:01.577Z,26.23
2022-09-12T15:36:29.346Z,26.17
2022-09-12T15:38:56.558Z,25.96
2022-09-12T15:41:35.178Z,25.97
2022-09-12T15:44:08.267Z,26.08
2022-09-12T15:46:35.398Z,25.92
2022-09-12T15:49:02.464Z,25.87
2022-09-12T15:51:29.560Z,25.54
2022-09-12T15:53:56.492Z,25.51
2022-09-12T15:56:23.720Z,25.61
2022-09-12T15:58:58.734Z,25.77
2022-09-12T16:01:28.395Z,25.54
2022-09-12T16:03:55.751Z,25.36
2022-09-12T16:06:23.470Z,25.53
2022-09-12T16:08:50.520Z,25.75
2022-09-12T16:11:26.869Z,25.70
2022-09-12T16:13:55.354Z,25.52
2022-09-12T16:16:22.526Z,25.40
2022-09-12T16:18:49.703Z,25.30
2022-09-12T16:21:16.663Z,25.32
2022-09-12T16:23:47.956Z,25.18
2022-09-12T16:26:16.070Z,25.22
2022-09-12T16:28:43.432Z,25.23
2022-09-12T16:31:14.139Z,25.20
2022-09-12T16:33:41.555Z,25.33
2022-09-12T16:36:15.263Z,25.18
2022-09-12T16:38:53.680Z,25.22
2022-09-12T16:41:27.320Z,25.15
2022-09-12T16:43:55.433Z,25.18
2022-09-12T16:46:30.544Z,25.12
2022-09-12T16:48:58.825Z,25.06
2022-09-12T16:51:31.264Z,25.12
2022-09-12T16:53:59.316Z,25.04
2022-09-12T16:56:26.335Z,25.09
2022-09-12T16:58:53.461Z,24.96
2022-09-12T17:01:26.248Z,24.88
2022-09-12T17:03:58.245Z,24.80
2022-09-12T17:06:26.528Z,24.80
2022-09-12T17:08:55.850Z,24.72
2022-09-12T17:11:31.042Z,24.52
2022-09-12T17:14:04.809Z,24.51
2022-09-12T17:16:42.598Z,24.46
2022-09-12T17:19:18.463Z,24.33
2022-09-12T17:21:47.607Z,24.08
2022-09-12T17:24:15.354Z,23.99
2022-09-12T17:26:42.606Z,23.89
2022-09-12T17:29:14.439Z,23.71
2022-09-12T17:31:43.415Z,23.27
2022-09-12T17:34:14.301Z,23.12
2022-09-12T17:36:44.221Z,22.94
2022-09-12T17:39:13.023Z,22.59
2022-09-12T17:41:42.634Z,22.31
2022-09-12T17:44:12.498Z,22.15
2022-09-12T17:46:39.781Z,21.86
2022-09-12T17:49:15.872Z,21.92
2022-09-12T17:51:43.949Z,21.91
2022-09-12T17:54:15.985Z,21.90
2022-09-12T17:56:45.927Z,21.75
2022-09-12T17:59:20.052Z,21.63
2022-09-12T18:02:05.917Z,21.36
2022-09-12T18:04:32.982Z,21.15
2022-09-12T18:07:00.412Z,21.18
2022-09-12T18:09:28.402Z,21.25
2022-09-12T18:11:55.542Z,21.14
2022-09-12T18:14:23.568Z,21.12
2022-09-12T18:16:50.916Z,21.09
2022-09-12T18:19:18.577Z,20.78
2022-09-12T18:21:46.029Z,20.66
2022-09-12T18:24:13.586Z,20.71
2022-09-12T18:26:42.751Z,20.79
2022-09-12T18:29:10.153Z,20.73
2022-09-12T18:31:37.138Z,20.79
2022-09-12T18:34:05.899Z,20.84
2022-09-12T18:36:33.854Z,20.81
2022-09-12T18:39:00.791Z,20.72
2022-09-12T18:41:29.008Z,20.66
2022-09-12T18:43:58.746Z,20.53
2022-09-12T18:46:27.994Z,20.40
2022-09-12T18:48:59.786Z,20.22
2022-09-12T18:51:31.524Z,19.97
2022-09-12T18:54:02.990Z,19.86
2022-09-12T18:56:32.974Z,19.63
2022-09-12T18:59:02.937Z,19.64
2022-09-12T19:01:38.101Z,19.71
2022-09-12T19:04:07.600Z,19.55
2022-09-12T19:06:38.298Z,19.74
2022-09-12T19:09:08.301Z,19.64
2022-09-12T19:11:38.407Z,19.66
2022-09-12T19:14:06.523Z,19.63
2022-09-12T19:16:34.626Z,19.49
2022-09-12T19:19:02.647Z,19.34
2022-09-12T19:21:31.612Z,19.43
2022-09-12T19:24:03.447Z,19.55
2022-09-12T19:26:30.675Z,19.50
2022-09-12T19:28:57.612Z,19.43
2022-09-12T19:31:25.240Z,19.33
2022-09-12T19:33:52.837Z,19.39
2022-09-12T19:36:43.980Z,19.38
2022-09-12T19:39:09.387Z,19.31
2022-09-12T19:41:36.879Z,19.30
2022-09-12T19:44:04.995Z,19.12
2022-09-12T19:46:32.092Z,19.01
2022-09-12T19:49:00.169Z,18.92
2022-09-12T19:51:27.122Z,18.91
2022-09-12T19:53:54.305Z,18.94
2022-09-12T19:56:21.796Z,18.89
2022-09-12T19:58:55.829Z,18.90
2022-09-12T20:01:29.565Z,18.97
2022-09-12T20:03:59.683Z,19.05
2022-09-12T20:06:27.383Z,18.90
2022-09-12T20:08:55.394Z,18.73
2022-09-12T20:11:23.945Z,18.62
2022-09-12T20:13:51.510Z,18.55
2022-09-12T20:16:25.644Z,18.32
2022-09-12T20:19:07.065Z,18.29
2022-09-12T20:21:36.123Z,18.36
2022-09-12T20:24:11.910Z,18.32
2022-09-12T20:26:39.965Z,18.18
2022-09-12T20:29:08.352Z,18.13
2022-09-12T20:31:37.745Z,18.06
2022-09-12T20:34:06.206Z,18.02
2022-09-12T20:36:33.759Z,17.68
2022-09-12T20:39:02.478Z,17.66
2022-09-12T20:41:32.676Z,17.62
2022-09-12T20:44:00.048Z,17.67
2022-09-12T20:46:28.889Z,17.86
2022-09-12T20:48:56.186Z,17.67
2022-09-12T20:51:26.461Z,17.74
2022-09-12T20:53:55.560Z,17.76
2022-09-12T20:56:23.997Z,17.65
2022-09-12T20:58:51.202Z,17.62
2022-09-12T21:01:23.091Z,17.57
2022-09-12T21:03:50.336Z,17.40
2022-09-12T21:06:18.729Z,17.23
2022-09-12T21:08:47.623Z,17.19
2022-09-12T21:11:15.462Z,17.19
2022-09-12T21:13:42.824Z,17.23
2022-09-12T21:16:20.156Z,17.12
2022-09-12T21:18:52.195Z,16.93
2022-09-12T21:21:20.917Z,16.97
2022-09-12T21:23:48.128Z,17.15
2022-09-12T21:26:15.034Z,17.17
2022-09-12T21:28:41.913Z,17.18
2022-09-12T21:31:09.235Z,17.23
2022-09-12T21:33:36.308Z,17.33
2022-09-12T21:36:05.335Z,17.23
2022-09-12T21:38:33.126Z,17.13
2022-09-12T21:41:08.950Z,17.08
2022-09-12T21:43:37.846Z,16.96
2022-09-12T21:46:06.090Z,16.81
2022-09-12T21:48:33.676Z,16.77
2022-09-12T21:51:01.288Z,16.70
2022-09-12T21:53:28.645Z,16.69
2022-09-12T21:56:00.758Z,16.59
2022-09-12T21:58:27.831Z,16.60
2022-09-12T22:00:54.755Z,16.79
2022-09-12T22:03:22.041Z,16.85
2022-09-12T22:06:07.779Z,17.00
2022-09-12T22:08:37.228Z,16.87
2022-09-12T22:11:07.909Z,16.62
2022-09-12T22:13:36.743Z,16.27
2022-09-12T22:16:03.985Z,16.23
2022-09-12T22:18:33.893Z,16.19
2022-09-12T22:21:15.067Z,16.40
2022-09-12T22:24:00.910Z,16.50
2022-09-12T22:26:29.237Z,16.60
2022-09-12T22:28:56.344Z,16.74
2022-09-12T22:31:23.586Z,16.69
2022-09-12T22:33:51.444Z,16.70
2022-09-12T22:36:18.395Z,16.68
2022-09-12T22:38:45.991Z,16.55
2022-09-12T22:41:13.248Z,16.33
2022-09-12T22:43:40.352Z,16.37
2022-09-12T22:46:09.960Z,16.39
2022-09-12T22:48:38.134Z,16.36
2022-09-12T22:51:06.026Z,16.49
2022-09-12T22:53:33.512Z,16.88
2022-09-12T22:56:00.883Z,16.64
2022-09-12T22:58:27.960Z,16.46
2022-09-12T23:00:55.050Z,16.41
2022-09-12T23:03:22.258Z,16.38
2022-09-12T23:05:50.243Z,16.52
2022-09-12T23:08:19.338Z,16.39
2022-09-12T23:10:46.768Z,16.40
2022-09-12T23:13:13.803Z,16.68
2022-09-12T23:15:40.803Z,16.59
2022-09-12T23:18:08.377Z,16.57
2022-09-12T23:20:35.270Z,16.43
2022-09-12T23:23:02.142Z,16.34
2022-09-12T23:25:29.040Z,16.28
2022-09-12T23:27:56.907Z,16.16
2022-09-12T23:30:23.773Z,15.97
2022-09-12T23:32:50.694Z,16.08
2022-09-12T23:35:20.827Z,16.01
2022-09-12T23:37:47.991Z,16.03
2022-09-12T23:40:15.180Z,15.92
2022-09-12T23:42:42.194Z,15.82
2022-09-12T23:45:10.345Z,15.61
2022-09-12T23:47:37.488Z,15.61
2022-09-12T23:50:04.952Z,15.60
2022-09-12T23:52:31.803Z,15.69
2022-09-12T23:54:58.766Z,15.59
2022-09-12T23:57:25.673Z,15.63
2022-09-12T23:59:52.535Z,15.71
